sensor_id;sensor_type;location;lat;lon;timestamp;P1;durP1;ratioP1;P2;durP2;ratioP2
53263;SDS011;39153;52.680;6.172;2023-03-23T00:01:01;12.80;;;7.97;;
53263;SDS011;39153;52.680;6.172;2023-03-23T00:03:27;10.38;;;7.30;;
53263;SDS011;39153;52.680;6.172;2023-03-23T00:05:54;13.10;;;7.72;;
53263;SDS011;39153;52.680;6.172;2023-03-23T00:08:29;11.90;;;7.57;;
53263;SDS011;39153;52.680;6.172;2023-03-23T00:10:56;10.07;;;7.63;;
53263;SDS011;39153;52.680;6.172;2023-03-23T00:13:24;12.75;;;6.93;;
53263;SDS011;39153;52.680;6.172;2023-03-23T00:15:51;13.13;;;7.10;;
53263;SDS011;39153;52.680;6.172;2023-03-23T00:18:22;11.60;;;6.57;;
53263;SDS011;39153;52.680;6.172;2023-03-23T00:20:52;13.00;;;7.07;;
53263;SDS011;39153;52.680;6.172;2023-03-23T00:23:21;10.30;;;6.13;;
53263;SDS011;39153;52.680;6.172;2023-03-23T00:25:49;12.10;;;6.38;;
53263;SDS011;39153;52.680;6.172;2023-03-23T00:28:18;9.77;;;6.47;;
53263;SDS011;39153;52.680;6.172;2023-03-23T00:30:53;10.82;;;5.65;;
53263;SDS011;39153;52.680;6.172;2023-03-23T00:33:27;13.05;;;5.70;;
53263;SDS011;39153;52.680;6.172;2023-03-23T00:35:55;12.25;;;6.13;;
53263;SDS011;39153;52.680;6.172;2023-03-23T00:38:21;10.45;;;5.68;;
53263;SDS011;39153;52.680;6.172;2023-03-23T00:40:47;8.18;;;5.03;;
53263;SDS011;39153;52.680;6.172;2023-03-23T00:43:14;10.38;;;5.40;;
53263;SDS011;39153;52.680;6.172;2023-03-23T00:45:41;9.48;;;5.50;;
53263;SDS011;39153;52.680;6.172;2023-03-23T00:48:10;10.18;;;5.30;;
53263;SDS011;39153;52.680;6.172;2023-03-23T00:50:39;8.85;;;5.80;;
53263;SDS011;39153;52.680;6.172;2023-03-23T00:53:05;8.35;;;5.45;;
53263;SDS011;39153;52.680;6.172;2023-03-23T00:55:32;10.00;;;5.78;;
53263;SDS011;39153;52.680;6.172;2023-03-23T00:57:59;12.30;;;5.30;;
53263;SDS011;39153;52.680;6.172;2023-03-23T01:00:25;9.82;;;5.55;;
53263;SDS011;39153;52.680;6.172;2023-03-23T01:02:52;10.57;;;5.75;;
53263;SDS011;39153;52.680;6.172;2023-03-23T01:05:19;9.07;;;5.30;;
53263;SDS011;39153;52.680;6.172;2023-03-23T01:07:45;9.10;;;5.00;;
53263;SDS011;39153;52.680;6.172;2023-03-23T01:10:13;8.52;;;5.05;;
53263;SDS011;39153;52.680;6.172;2023-03-23T01:12:45;9.07;;;4.90;;
53263;SDS011;39153;52.680;6.172;2023-03-23T01:15:15;8.13;;;4.28;;
53263;SDS011;39153;52.680;6.172;2023-03-23T01:17:42;8.20;;;4.60;;
53263;SDS011;39153;52.680;6.172;2023-03-23T01:20:09;10.48;;;5.13;;
53263;SDS011;39153;52.680;6.172;2023-03-23T01:22:36;7.68;;;4.47;;
53263;SDS011;39153;52.680;6.172;2023-03-23T01:25:02;8.18;;;4.60;;
53263;SDS011;39153;52.680;6.172;2023-03-23T01:27:28;12.23;;;4.97;;
53263;SDS011;39153;52.680;6.172;2023-03-23T01:29:54;10.45;;;4.57;;
53263;SDS011;39153;52.680;6.172;2023-03-23T01:32:20;8.77;;;4.85;;
53263;SDS011;39153;52.680;6.172;2023-03-23T01:34:46;7.45;;;4.35;;
53263;SDS011;39153;52.680;6.172;2023-03-23T01:37:11;6.22;;;4.00;;
53263;SDS011;39153;52.680;6.172;2023-03-23T01:39:37;7.90;;;4.38;;
53263;SDS011;39153;52.680;6.172;2023-03-23T01:42:03;8.65;;;4.13;;
53263;SDS011;39153;52.680;6.172;2023-03-23T01:46:55;8.68;;;4.28;;
53263;SDS011;39153;52.680;6.172;2023-03-23T01:49:27;11.27;;;4.10;;
53263;SDS011;39153;52.680;6.172;2023-03-23T01:51:58;11.57;;;4.13;;
53263;SDS011;39153;52.680;6.172;2023-03-23T01:54:30;8.13;;;4.37;;
53263;SDS011;39153;52.680;6.172;2023-03-23T01:56:58;7.35;;;4.20;;
53263;SDS011;39153;52.680;6.172;2023-03-23T01:59:27;8.00;;;4.28;;
53263;SDS011;39153;52.680;6.172;2023-03-23T02:01:54;7.90;;;4.05;;
53263;SDS011;39153;52.680;6.172;2023-03-23T02:04:20;7.50;;;3.85;;
53263;SDS011;39153;52.680;6.172;2023-03-23T02:06:49;7.82;;;4.30;;
53263;SDS011;39153;52.680;6.172;2023-03-23T02:09:16;6.05;;;3.55;;
53263;SDS011;39153;52.680;6.172;2023-03-23T02:11:43;8.75;;;3.97;;
53263;SDS011;39153;52.680;6.172;2023-03-23T02:14:09;6.95;;;3.63;;
53263;SDS011;39153;52.680;6.172;2023-03-23T02:24:39;9.13;;;3.67;;
53263;SDS011;39153;52.680;6.172;2023-03-23T02:27:09;7.68;;;3.70;;
53263;SDS011;39153;52.680;6.172;2023-03-23T02:29:50;7.25;;;3.10;;
53263;SDS011;39153;52.680;6.172;2023-03-23T02:35:34;7.75;;;3.67;;
53263;SDS011;39153;52.680;6.172;2023-03-23T02:38:11;6.95;;;3.33;;
53263;SDS011;39153;52.680;6.172;2023-03-23T02:40:49;7.28;;;3.53;;
53263;SDS011;39153;52.680;6.172;2023-03-23T02:43:18;5.82;;;3.15;;
53263;SDS011;39153;52.680;6.172;2023-03-23T02:45:47;6.95;;;3.05;;
53263;SDS011;39153;52.680;6.172;2023-03-23T02:48:15;6.63;;;3.30;;
53263;SDS011;39153;52.680;6.172;2023-03-23T02:50:45;7.85;;;3.28;;
53263;SDS011;39153;52.680;6.172;2023-03-23T02:53:17;6.80;;;3.50;;
53263;SDS011;39153;52.680;6.172;2023-03-23T02:55:46;6.88;;;3.15;;
53263;SDS011;39153;52.680;6.172;2023-03-23T02:58:14;7.78;;;3.40;;
53263;SDS011;39153;52.680;6.172;2023-03-23T03:00:40;6.07;;;3.10;;
53263;SDS011;39153;52.680;6.172;2023-03-23T03:03:08;5.82;;;3.20;;
53263;SDS011;39153;52.680;6.172;2023-03-23T03:08:13;5.35;;;3.00;;
53263;SDS011;39153;52.680;6.172;2023-03-23T03:15:58;8.20;;;3.55;;
53263;SDS011;39153;52.680;6.172;2023-03-23T03:21:08;7.95;;;3.70;;
53263;SDS011;39153;52.680;6.172;2023-03-23T03:23:38;8.35;;;3.92;;
53263;SDS011;39153;52.680;6.172;2023-03-23T03:26:07;7.40;;;3.75;;
53263;SDS011;39153;52.680;6.172;2023-03-23T03:28:36;8.18;;;4.15;;
53263;SDS011;39153;52.680;6.172;2023-03-23T03:31:03;8.43;;;3.63;;
53263;SDS011;39153;52.680;6.172;2023-03-23T03:33:31;9.25;;;3.65;;
53263;SDS011;39153;52.680;6.172;2023-03-23T03:36:02;7.05;;;3.60;;
53263;SDS011;39153;52.680;6.172;2023-03-23T03:38:29;5.22;;;3.53;;
53263;SDS011;39153;52.680;6.172;2023-03-23T03:41:05;6.57;;;3.65;;
53263;SDS011;39153;52.680;6.172;2023-03-23T03:43:31;6.90;;;4.13;;
53263;SDS011;39153;52.680;6.172;2023-03-23T03:45:56;7.38;;;3.92;;
53263;SDS011;39153;52.680;6.172;2023-03-23T03:48:22;7.20;;;4.00;;
53263;SDS011;39153;52.680;6.172;2023-03-23T03:50:47;8.40;;;4.15;;
53263;SDS011;39153;52.680;6.172;2023-03-23T03:53:13;8.25;;;4.50;;
53263;SDS011;39153;52.680;6.172;2023-03-23T03:55:39;9.27;;;4.55;;
53263;SDS011;39153;52.680;6.172;2023-03-23T03:58:10;10.40;;;4.50;;
53263;SDS011;39153;52.680;6.172;2023-03-23T04:00:36;8.85;;;4.60;;
53263;SDS011;39153;52.680;6.172;2023-03-23T04:03:01;8.75;;;3.85;;
53263;SDS011;39153;52.680;6.172;2023-03-23T04:05:27;9.85;;;4.63;;
53263;SDS011;39153;52.680;6.172;2023-03-23T04:07:56;7.88;;;4.30;;
53263;SDS011;39153;52.680;6.172;2023-03-23T04:10:26;7.80;;;4.38;;
53263;SDS011;39153;52.680;6.172;2023-03-23T04:12:54;7.88;;;4.30;;
53263;SDS011;39153;52.680;6.172;2023-03-23T04:15:20;8.77;;;4.20;;
53263;SDS011;39153;52.680;6.172;2023-03-23T04:17:46;8.30;;;4.68;;
53263;SDS011;39153;52.680;6.172;2023-03-23T04:20:12;10.07;;;4.82;;
53263;SDS011;39153;52.680;6.172;2023-03-23T04:22:43;6.97;;;4.15;;
53263;SDS011;39153;52.680;6.172;2023-03-23T04:25:10;8.05;;;3.83;;
53263;SDS011;39153;52.680;6.172;2023-03-23T04:27:38;9.70;;;4.60;;
53263;SDS011;39153;52.680;6.172;2023-03-23T04:30:05;13.63;;;4.20;;
53263;SDS011;39153;52.680;6.172;2023-03-23T04:32:31;9.82;;;4.35;;
53263;SDS011;39153;52.680;6.172;2023-03-23T04:34:57;8.18;;;4.63;;
53263;SDS011;39153;52.680;6.172;2023-03-23T04:37:26;8.50;;;4.82;;
53263;SDS011;39153;52.680;6.172;2023-03-23T04:39:58;12.10;;;5.32;;
53263;SDS011;39153;52.680;6.172;2023-03-23T04:42:38;14.60;;;5.13;;
53263;SDS011;39153;52.680;6.172;2023-03-23T04:45:05;13.35;;;5.68;;
53263;SDS011;39153;52.680;6.172;2023-03-23T04:47:33;22.17;;;6.03;;
53263;SDS011;39153;52.680;6.172;2023-03-23T04:50:06;15.80;;;5.78;;
53263;SDS011;39153;52.680;6.172;2023-03-23T04:52:33;12.65;;;5.05;;
53263;SDS011;39153;52.680;6.172;2023-03-23T04:54:59;8.95;;;3.72;;
53263;SDS011;39153;52.680;6.172;2023-03-23T04:57:25;9.00;;;4.40;;
53263;SDS011;39153;52.680;6.172;2023-03-23T04:59:53;12.82;;;3.80;;
53263;SDS011;39153;52.680;6.172;2023-03-23T05:02:18;8.90;;;3.10;;
53263;SDS011;39153;52.680;6.172;2023-03-23T05:04:44;12.88;;;3.33;;
53263;SDS011;39153;52.680;6.172;2023-03-23T05:07:10;9.18;;;3.13;;
53263;SDS011;39153;52.680;6.172;2023-03-23T05:09:36;10.95;;;2.88;;
53263;SDS011;39153;52.680;6.172;2023-03-23T05:12:03;8.63;;;2.97;;
53263;SDS011;39153;52.680;6.172;2023-03-23T05:14:33;9.75;;;2.90;;
53263;SDS011;39153;52.680;6.172;2023-03-23T05:16:59;13.38;;;2.72;;
53263;SDS011;39153;52.680;6.172;2023-03-23T05:19:25;8.48;;;3.05;;
53263;SDS011;39153;52.680;6.172;2023-03-23T05:21:53;11.43;;;2.83;;
53263;SDS011;39153;52.680;6.172;2023-03-23T05:24:19;8.18;;;3.05;;
53263;SDS011;39153;52.680;6.172;2023-03-23T05:26:45;8.80;;;2.97;;
53263;SDS011;39153;52.680;6.172;2023-03-23T05:29:13;11.98;;;2.83;;
53263;SDS011;39153;52.680;6.172;2023-03-23T05:31:40;13.57;;;3.03;;
53263;SDS011;39153;52.680;6.172;2023-03-23T05:34:06;7.70;;;2.63;;
53263;SDS011;39153;52.680;6.172;2023-03-23T05:36:32;12.73;;;3.15;;
53263;SDS011;39153;52.680;6.172;2023-03-23T05:38:57;6.70;;;2.58;;
53263;SDS011;39153;52.680;6.172;2023-03-23T05:41:25;6.55;;;2.40;;
53263;SDS011;39153;52.680;6.172;2023-03-23T05:43:50;8.05;;;2.38;;
53263;SDS011;39153;52.680;6.172;2023-03-23T05:46:16;6.72;;;2.05;;
53263;SDS011;39153;52.680;6.172;2023-03-23T05:48:43;8.80;;;1.95;;
53263;SDS011;39153;52.680;6.172;2023-03-23T05:51:08;6.47;;;1.85;;
53263;SDS011;39153;52.680;6.172;2023-03-23T05:53:35;7.15;;;2.35;;
53263;SDS011;39153;52.680;6.172;2023-03-23T05:56:01;9.75;;;2.53;;
53263;SDS011;39153;52.680;6.172;2023-03-23T05:58:27;8.48;;;2.88;;
53263;SDS011;39153;52.680;6.172;2023-03-23T06:00:52;7.78;;;2.83;;
53263;SDS011;39153;52.680;6.172;2023-03-23T06:03:18;7.18;;;2.60;;
53263;SDS011;39153;52.680;6.172;2023-03-23T06:05:44;8.65;;;2.63;;
53263;SDS011;39153;52.680;6.172;2023-03-23T06:08:10;8.95;;;2.72;;
53263;SDS011;39153;52.680;6.172;2023-03-23T06:10:36;9.98;;;2.45;;
53263;SDS011;39153;52.680;6.172;2023-03-23T06:13:03;10.15;;;3.13;;
53263;SDS011;39153;52.680;6.172;2023-03-23T06:15:30;11.98;;;3.30;;
53263;SDS011;39153;52.680;6.172;2023-03-23T06:18:01;12.38;;;3.10;;
53263;SDS011;39153;52.680;6.172;2023-03-23T06:20:28;15.50;;;2.95;;
53263;SDS011;39153;52.680;6.172;2023-03-23T06:22:54;10.52;;;3.10;;
53263;SDS011;39153;52.680;6.172;2023-03-23T06:25:21;12.80;;;3.10;;
53263;SDS011;39153;52.680;6.172;2023-03-23T06:27:47;11.90;;;3.28;;
53263;SDS011;39153;52.680;6.172;2023-03-23T06:30:13;17.67;;;4.47;;
53263;SDS011;39153;52.680;6.172;2023-03-23T06:32:40;15.95;;;3.55;;
53263;SDS011;39153;52.680;6.172;2023-03-23T06:35:07;9.95;;;3.30;;
53263;SDS011;39153;52.680;6.172;2023-03-23T06:37:34;16.15;;;3.88;;
53263;SDS011;39153;52.680;6.172;2023-03-23T06:40:01;18.88;;;3.95;;
53263;SDS011;39153;52.680;6.172;2023-03-23T06:42:29;15.73;;;4.57;;
53263;SDS011;39153;52.680;6.172;2023-03-23T06:44:55;16.88;;;4.20;;
53263;SDS011;39153;52.680;6.172;2023-03-23T06:47:22;15.18;;;4.57;;
53263;SDS011;39153;52.680;6.172;2023-03-23T06:49:48;16.73;;;5.20;;
53263;SDS011;39153;52.680;6.172;2023-03-23T06:52:14;18.63;;;4.70;;
53263;SDS011;39153;52.680;6.172;2023-03-23T06:54:40;19.00;;;4.90;;
53263;SDS011;39153;52.680;6.172;2023-03-23T06:57:06;18.10;;;4.97;;
53263;SDS011;39153;52.680;6.172;2023-03-23T06:59:32;14.82;;;4.93;;
53263;SDS011;39153;52.680;6.172;2023-03-23T07:01:58;13.82;;;4.80;;
53263;SDS011;39153;52.680;6.172;2023-03-23T07:04:23;11.80;;;3.60;;
53263;SDS011;39153;52.680;6.172;2023-03-23T07:06:49;13.48;;;4.35;;
53263;SDS011;39153;52.680;6.172;2023-03-23T07:09:15;14.40;;;3.97;;
53263;SDS011;39153;52.680;6.172;2023-03-23T07:11:41;15.60;;;4.28;;
53263;SDS011;39153;52.680;6.172;2023-03-23T07:14:07;12.65;;;4.03;;
53263;SDS011;39153;52.680;6.172;2023-03-23T07:16:33;17.02;;;4.35;;
53263;SDS011;39153;52.680;6.172;2023-03-23T07:18:59;14.63;;;3.90;;
53263;SDS011;39153;52.680;6.172;2023-03-23T07:21:26;17.50;;;4.78;;
53263;SDS011;39153;52.680;6.172;2023-03-23T07:23:51;13.88;;;3.58;;
53263;SDS011;39153;52.680;6.172;2023-03-23T07:26:17;13.63;;;3.78;;
53263;SDS011;39153;52.680;6.172;2023-03-23T07:28:43;14.07;;;3.60;;
53263;SDS011;39153;52.680;6.172;2023-03-23T07:31:10;16.17;;;3.60;;
53263;SDS011;39153;52.680;6.172;2023-03-23T07:33:37;18.35;;;4.35;;
53263;SDS011;39153;52.680;6.172;2023-03-23T07:36:02;22.83;;;4.28;;
53263;SDS011;39153;52.680;6.172;2023-03-23T07:38:29;20.02;;;4.03;;
53263;SDS011;39153;52.680;6.172;2023-03-23T07:40:55;20.02;;;4.53;;
53263;SDS011;39153;52.680;6.172;2023-03-23T07:43:21;20.65;;;4.47;;
53263;SDS011;39153;52.680;6.172;2023-03-23T07:45:47;17.77;;;4.32;;
53263;SDS011;39153;52.680;6.172;2023-03-23T07:48:13;20.58;;;4.45;;
53263;SDS011;39153;52.680;6.172;2023-03-23T07:50:39;19.70;;;4.28;;
53263;SDS011;39153;52.680;6.172;2023-03-23T07:53:05;15.90;;;4.15;;
53263;SDS011;39153;52.680;6.172;2023-03-23T07:55:31;18.27;;;4.93;;
53263;SDS011;39153;52.680;6.172;2023-03-23T07:57:57;19.75;;;4.40;;
53263;SDS011;39153;52.680;6.172;2023-03-23T08:00:23;20.17;;;4.72;;
53263;SDS011;39153;52.680;6.172;2023-03-23T08:02:53;22.80;;;5.00;;
53263;SDS011;39153;52.680;6.172;2023-03-23T08:05:20;19.02;;;4.57;;
53263;SDS011;39153;52.680;6.172;2023-03-23T08:07:47;22.67;;;4.65;;
53263;SDS011;39153;52.680;6.172;2023-03-23T08:10:13;21.00;;;4.25;;
53263;SDS011;39153;52.680;6.172;2023-03-23T08:12:42;17.88;;;4.40;;
53263;SDS011;39153;52.680;6.172;2023-03-23T08:15:10;19.25;;;4.55;;
53263;SDS011;39153;52.680;6.172;2023-03-23T08:17:40;25.15;;;4.43;;
53263;SDS011;39153;52.680;6.172;2023-03-23T08:20:06;17.63;;;4.03;;
53263;SDS011;39153;52.680;6.172;2023-03-23T08:22:37;19.92;;;4.70;;
53263;SDS011;39153;52.680;6.172;2023-03-23T08:25:05;19.85;;;4.28;;
53263;SDS011;39153;52.680;6.172;2023-03-23T08:27:33;23.45;;;4.85;;
53263;SDS011;39153;52.680;6.172;2023-03-23T08:29:59;20.00;;;5.05;;
53263;SDS011;39153;52.680;6.172;2023-03-23T08:32:25;21.83;;;4.90;;
53263;SDS011;39153;52.680;6.172;2023-03-23T08:34:51;19.95;;;4.68;;
53263;SDS011;39153;52.680;6.172;2023-03-23T08:37:17;18.70;;;4.75;;
53263;SDS011;39153;52.680;6.172;2023-03-23T08:39:43;19.65;;;4.97;;
53263;SDS011;39153;52.680;6.172;2023-03-23T08:42:10;18.65;;;4.78;;
53263;SDS011;39153;52.680;6.172;2023-03-23T08:44:36;18.05;;;4.70;;
53263;SDS011;39153;52.680;6.172;2023-03-23T08:47:02;17.80;;;4.80;;
53263;SDS011;39153;52.680;6.172;2023-03-23T08:49:30;20.55;;;4.80;;
53263;SDS011;39153;52.680;6.172;2023-03-23T08:51:58;20.38;;;4.57;;
53263;SDS011;39153;52.680;6.172;2023-03-23T08:54:24;17.70;;;4.28;;
53263;SDS011;39153;52.680;6.172;2023-03-23T08:56:50;18.65;;;5.03;;
53263;SDS011;39153;52.680;6.172;2023-03-23T08:59:16;21.75;;;5.05;;
53263;SDS011;39153;52.680;6.172;2023-03-23T09:01:41;19.23;;;4.88;;
53263;SDS011;39153;52.680;6.172;2023-03-23T09:04:07;17.42;;;4.32;;
53263;SDS011;39153;52.680;6.172;2023-03-23T09:06:34;21.08;;;4.93;;
53263;SDS011;39153;52.680;6.172;2023-03-23T09:09:01;19.67;;;4.47;;
53263;SDS011;39153;52.680;6.172;2023-03-23T09:11:31;23.08;;;5.15;;
53263;SDS011;39153;52.680;6.172;2023-03-23T09:13:58;16.98;;;4.20;;
53263;SDS011;39153;52.680;6.172;2023-03-23T09:16:24;19.33;;;4.70;;
53263;SDS011;39153;52.680;6.172;2023-03-23T09:18:50;19.05;;;4.20;;
53263;SDS011;39153;52.680;6.172;2023-03-23T09:21:16;18.45;;;4.65;;
53263;SDS011;39153;52.680;6.172;2023-03-23T09:23:42;17.77;;;4.28;;
53263;SDS011;39153;52.680;6.172;2023-03-23T09:26:09;14.32;;;3.60;;
53263;SDS011;39153;52.680;6.172;2023-03-23T09:28:35;19.10;;;3.75;;
53263;SDS011;39153;52.680;6.172;2023-03-23T09:31:01;11.77;;;3.20;;
53263;SDS011;39153;52.680;6.172;2023-03-23T09:33:27;17.35;;;4.13;;
53263;SDS011;39153;52.680;6.172;2023-03-23T09:35:57;17.10;;;4.30;;
53263;SDS011;39153;52.680;6.172;2023-03-23T09:38:23;11.20;;;2.95;;
53263;SDS011;39153;52.680;6.172;2023-03-23T09:49:02;12.07;;;3.53;;
53263;SDS011;39153;52.680;6.172;2023-03-23T09:51:45;16.30;;;4.05;;
53263;SDS011;39153;52.680;6.172;2023-03-23T09:54:27;11.48;;;3.28;;
53263;SDS011;39153;52.680;6.172;2023-03-23T09:56:55;11.63;;;3.40;;
53263;SDS011;39153;52.680;6.172;2023-03-23T09:59:41;11.65;;;3.38;;
53263;SDS011;39153;52.680;6.172;2023-03-23T10:02:15;11.68;;;3.38;;
53263;SDS011;39153;52.680;6.172;2023-03-23T10:04:46;13.77;;;3.20;;
53263;SDS011;39153;52.680;6.172;2023-03-23T10:07:18;17.83;;;3.50;;
53263;SDS011;39153;52.680;6.172;2023-03-23T10:09:46;10.60;;;2.60;;
53263;SDS011;39153;52.680;6.172;2023-03-23T10:12:27;9.75;;;2.90;;
53263;SDS011;39153;52.680;6.172;2023-03-23T10:15:14;11.90;;;3.00;;
53263;SDS011;39153;52.680;6.172;2023-03-23T10:18:03;12.88;;;3.15;;
53263;SDS011;39153;52.680;6.172;2023-03-23T10:20:41;10.90;;;2.92;;
53263;SDS011;39153;52.680;6.172;2023-03-23T10:29:21;11.83;;;2.80;;
53263;SDS011;39153;52.680;6.172;2023-03-23T10:32:03;12.90;;;3.42;;
53263;SDS011;39153;52.680;6.172;2023-03-23T10:37:25;16.20;;;3.15;;
53263;SDS011;39153;52.680;6.172;2023-03-23T10:39:59;11.88;;;3.38;;
53263;SDS011;39153;52.680;6.172;2023-03-23T10:42:35;12.30;;;3.35;;
53263;SDS011;39153;52.680;6.172;2023-03-23T10:47:55;11.95;;;3.28;;
53263;SDS011;39153;52.680;6.172;2023-03-23T10:50:41;12.05;;;2.58;;
53263;SDS011;39153;52.680;6.172;2023-03-23T10:53:17;13.75;;;3.25;;
53263;SDS011;39153;52.680;6.172;2023-03-23T10:55:47;12.73;;;3.25;;
53263;SDS011;39153;52.680;6.172;2023-03-23T10:58:33;15.63;;;3.42;;
53263;SDS011;39153;52.680;6.172;2023-03-23T11:01:01;10.32;;;3.42;;
53263;SDS011;39153;52.680;6.172;2023-03-23T11:06:05;12.77;;;3.67;;
53263;SDS011;39153;52.680;6.172;2023-03-23T11:11:38;13.68;;;3.75;;
53263;SDS011;39153;52.680;6.172;2023-03-23T11:16:50;11.05;;;3.15;;
53263;SDS011;39153;52.680;6.172;2023-03-23T11:19:30;14.52;;;2.63;;
53263;SDS011;39153;52.680;6.172;2023-03-23T11:22:04;9.82;;;2.63;;
53263;SDS011;39153;52.680;6.172;2023-03-23T11:24:35;10.27;;;2.80;;
53263;SDS011;39153;52.680;6.172;2023-03-23T11:27:17;12.75;;;3.28;;
53263;SDS011;39153;52.680;6.172;2023-03-23T11:29:49;9.75;;;2.90;;
53263;SDS011;39153;52.680;6.172;2023-03-23T11:32:18;11.60;;;2.83;;
53263;SDS011;39153;52.680;6.172;2023-03-23T11:34:48;12.85;;;2.97;;
53263;SDS011;39153;52.680;6.172;2023-03-23T11:39:54;16.25;;;3.25;;
53263;SDS011;39153;52.680;6.172;2023-03-23T11:42:41;11.23;;;2.72;;
53263;SDS011;39153;52.680;6.172;2023-03-23T11:50:52;15.57;;;3.45;;
53263;SDS011;39153;52.680;6.172;2023-03-23T11:55:56;13.55;;;4.05;;
53263;SDS011;39153;52.680;6.172;2023-03-23T11:58:26;12.30;;;2.70;;
53263;SDS011;39153;52.680;6.172;2023-03-23T12:00:58;14.13;;;3.42;;
53263;SDS011;39153;52.680;6.172;2023-03-23T12:06:29;10.30;;;2.45;;
53263;SDS011;39153;52.680;6.172;2023-03-23T12:22:46;12.05;;;3.70;;
53263;SDS011;39153;52.680;6.172;2023-03-23T12:25:31;13.65;;;3.13;;
53263;SDS011;39153;52.680;6.172;2023-03-23T12:44:53;12.32;;;2.83;;
53263;SDS011;39153;52.680;6.172;2023-03-23T12:47:27;11.50;;;3.40;;
53263;SDS011;39153;52.680;6.172;2023-03-23T13:00:47;10.85;;;2.55;;
53263;SDS011;39153;52.680;6.172;2023-03-23T13:06:04;11.60;;;2.58;;
53263;SDS011;39153;52.680;6.172;2023-03-23T13:08:38;13.75;;;2.47;;
53263;SDS011;39153;52.680;6.172;2023-03-23T13:11:17;11.70;;;2.50;;
53263;SDS011;39153;52.680;6.172;2023-03-23T13:13:52;14.07;;;2.83;;
53263;SDS011;39153;52.680;6.172;2023-03-23T13:16:29;13.88;;;3.00;;
53263;SDS011;39153;52.680;6.172;2023-03-23T13:21:58;10.55;;;2.60;;
53263;SDS011;39153;52.680;6.172;2023-03-23T13:24:29;15.65;;;3.30;;
53263;SDS011;39153;52.680;6.172;2023-03-23T13:26:59;12.07;;;2.80;;
53263;SDS011;39153;52.680;6.172;2023-03-23T13:29:26;11.27;;;2.70;;
53263;SDS011;39153;52.680;6.172;2023-03-23T13:32:05;17.75;;;3.15;;
53263;SDS011;39153;52.680;6.172;2023-03-23T13:34:42;13.48;;;3.00;;
53263;SDS011;39153;52.680;6.172;2023-03-23T13:37:21;16.30;;;2.97;;
53263;SDS011;39153;52.680;6.172;2023-03-23T13:42:33;12.95;;;2.70;;
53263;SDS011;39153;52.680;6.172;2023-03-23T13:47:46;13.70;;;3.17;;
53263;SDS011;39153;52.680;6.172;2023-03-23T14:03:11;15.98;;;3.53;;
53263;SDS011;39153;52.680;6.172;2023-03-23T14:05:40;14.35;;;2.92;;
53263;SDS011;39153;52.680;6.172;2023-03-23T14:13:16;15.05;;;3.60;;
53263;SDS011;39153;52.680;6.172;2023-03-23T14:16:04;14.95;;;2.83;;
53263;SDS011;39153;52.680;6.172;2023-03-23T14:19:00;17.38;;;4.10;;
53263;SDS011;39153;52.680;6.172;2023-03-23T14:21:35;15.27;;;3.63;;
53263;SDS011;39153;52.680;6.172;2023-03-23T14:24:09;14.45;;;3.58;;
53263;SDS011;39153;52.680;6.172;2023-03-23T14:26:35;15.55;;;3.40;;
53263;SDS011;39153;52.680;6.172;2023-03-23T14:29:01;17.17;;;4.07;;
53263;SDS011;39153;52.680;6.172;2023-03-23T14:31:29;15.05;;;3.20;;
53263;SDS011;39153;52.680;6.172;2023-03-23T14:33:55;10.73;;;2.65;;
53263;SDS011;39153;52.680;6.172;2023-03-23T14:36:26;15.70;;;3.25;;
53263;SDS011;39153;52.680;6.172;2023-03-23T14:44:16;11.98;;;2.92;;
53263;SDS011;39153;52.680;6.172;2023-03-23T14:46:45;11.18;;;2.35;;
53263;SDS011;39153;52.680;6.172;2023-03-23T14:49:12;14.27;;;3.08;;
53263;SDS011;39153;52.680;6.172;2023-03-23T14:51:51;16.42;;;3.38;;
53263;SDS011;39153;52.680;6.172;2023-03-23T14:54:21;13.00;;;3.15;;
53263;SDS011;39153;52.680;6.172;2023-03-23T14:56:49;13.35;;;3.00;;
53263;SDS011;39153;52.680;6.172;2023-03-23T14:59:15;13.98;;;3.00;;
53263;SDS011;39153;52.680;6.172;2023-03-23T15:01:40;11.70;;;3.10;;
53263;SDS011;39153;52.680;6.172;2023-03-23T15:04:13;12.15;;;3.03;;
53263;SDS011;39153;52.680;6.172;2023-03-23T15:06:50;12.63;;;3.17;;
53263;SDS011;39153;52.680;6.172;2023-03-23T15:09:24;10.80;;;2.55;;
53263;SDS011;39153;52.680;6.172;2023-03-23T15:11:57;13.68;;;2.70;;
53263;SDS011;39153;52.680;6.172;2023-03-23T15:14:30;16.33;;;3.33;;
53263;SDS011;39153;52.680;6.172;2023-03-23T15:17:21;12.25;;;3.10;;
53263;SDS011;39153;52.680;6.172;2023-03-23T15:19:49;16.05;;;3.20;;
53263;SDS011;39153;52.680;6.172;2023-03-23T15:22:23;14.13;;;3.38;;
53263;SDS011;39153;52.680;6.172;2023-03-23T15:25:16;13.32;;;3.25;;
53263;SDS011;39153;52.680;6.172;2023-03-23T15:27:43;11.25;;;2.83;;
53263;SDS011;39153;52.680;6.172;2023-03-23T15:32:42;14.75;;;3.47;;
53263;SDS011;39153;52.680;6.172;2023-03-23T15:35:20;12.80;;;3.20;;
53263;SDS011;39153;52.680;6.172;2023-03-23T15:37:51;11.02;;;3.05;;
53263;SDS011;39153;52.680;6.172;2023-03-23T15:40:25;12.05;;;3.03;;
53263;SDS011;39153;52.680;6.172;2023-03-23T15:48:31;12.48;;;2.72;;
53263;SDS011;39153;52.680;6.172;2023-03-23T15:50:58;15.68;;;3.67;;
53263;SDS011;39153;52.680;6.172;2023-03-23T15:53:34;14.07;;;2.97;;
53263;SDS011;39153;52.680;6.172;2023-03-23T15:56:04;11.38;;;2.70;;
53263;SDS011;39153;52.680;6.172;2023-03-23T15:58:31;11.32;;;3.05;;
53263;SDS011;39153;52.680;6.172;2023-03-23T16:00:58;13.50;;;3.28;;
53263;SDS011;39153;52.680;6.172;2023-03-23T16:03:28;13.85;;;3.47;;
53263;SDS011;39153;52.680;6.172;2023-03-23T16:05:59;16.50;;;4.00;;
53263;SDS011;39153;52.680;6.172;2023-03-23T16:08:27;14.93;;;3.45;;
53263;SDS011;39153;52.680;6.172;2023-03-23T16:10:53;11.27;;;3.45;;
53263;SDS011;39153;52.680;6.172;2023-03-23T16:13:19;10.13;;;2.65;;
53263;SDS011;39153;52.680;6.172;2023-03-23T16:15:45;11.93;;;2.67;;
53263;SDS011;39153;52.680;6.172;2023-03-23T16:18:19;9.65;;;2.60;;
53263;SDS011;39153;52.680;6.172;2023-03-23T16:20:46;8.98;;;2.35;;
53263;SDS011;39153;52.680;6.172;2023-03-23T16:23:13;9.82;;;2.70;;
53263;SDS011;39153;52.680;6.172;2023-03-23T16:25:39;5.38;;;1.70;;
53263;SDS011;39153;52.680;6.172;2023-03-23T16:28:05;5.45;;;1.27;;
53263;SDS011;39153;52.680;6.172;2023-03-23T16:30:33;4.85;;;1.10;;
53263;SDS011;39153;52.680;6.172;2023-03-23T16:33:02;7.20;;;1.50;;
53263;SDS011;39153;52.680;6.172;2023-03-23T16:35:28;6.35;;;1.20;;
53263;SDS011;39153;52.680;6.172;2023-03-23T16:37:54;4.47;;;1.02;;
53263;SDS011;39153;52.680;6.172;2023-03-23T16:40:21;3.88;;;1.20;;
53263;SDS011;39153;52.680;6.172;2023-03-23T16:42:47;5.15;;;1.27;;
53263;SDS011;39153;52.680;6.172;2023-03-23T16:45:14;5.68;;;1.50;;
53263;SDS011;39153;52.680;6.172;2023-03-23T16:47:41;7.00;;;2.15;;
53263;SDS011;39153;52.680;6.172;2023-03-23T16:50:09;6.57;;;1.63;;
53263;SDS011;39153;52.680;6.172;2023-03-23T16:52:37;12.27;;;2.20;;
53263;SDS011;39153;52.680;6.172;2023-03-23T16:55:07;8.40;;;2.00;;
53263;SDS011;39153;52.680;6.172;2023-03-23T16:57:35;6.18;;;2.00;;
53263;SDS011;39153;52.680;6.172;2023-03-23T17:00:06;10.77;;;2.30;;
53263;SDS011;39153;52.680;6.172;2023-03-23T17:02:34;10.25;;;2.58;;
53263;SDS011;39153;52.680;6.172;2023-03-23T17:05:00;9.30;;;2.47;;
53263;SDS011;39153;52.680;6.172;2023-03-23T17:07:27;11.35;;;2.75;;
53263;SDS011;39153;52.680;6.172;2023-03-23T17:09:53;9.48;;;2.95;;
53263;SDS011;39153;52.680;6.172;2023-03-23T17:12:19;10.75;;;2.70;;
53263;SDS011;39153;52.680;6.172;2023-03-23T17:14:45;10.93;;;3.03;;
53263;SDS011;39153;52.680;6.172;2023-03-23T17:17:11;9.68;;;2.55;;
53263;SDS011;39153;52.680;6.172;2023-03-23T17:19:36;10.90;;;2.80;;